Latest Weather Observations for Julia Creek

IDQ60801

Issued at 7:32 am EST Friday 22 January 2021 (issued every 10 minutes, with the page automatically refreshed every 10 minutes)

About weather observations | Map of weather stations | Latest weather observations for QLD | Other Formats
Station Details ID: 029058 Name: JULIA CREEK AIRPORT Lat: -20.67 Lon: 141.72 Height: 122.5 m
Data from the previous 72 hours. | See also: Recent months at Julia Creek
Date/Time
EST
Temp
°C
App
Temp
°C
Dew
Point
°C
Rel
Hum
%
Delta-T
°C
Wind Press
QNH
hPa
Press
MSL
hPa
Rain since
9am
mm
Dir  Spd
km/h
Gust
km/h
Spd
kts
Gust
kts
22/07:30am 27.3 29.7 21.6 71 3.8 N 11 17 6 9 1010.7 1009.8 0.2
22/07:00am 25.7 28.4 21.4 77 2.9 NNW 9 13 5 7 1010.5 1009.6 0.2
22/06:30am 24.3 27.0 20.6 80 2.4 NNW 7 9 4 5 1010.3 1009.4 0.2
22/06:00am 24.3 26.3 20.8 81 2.3 NW 11 13 6 7 1009.6 1008.7 0.2
22/05:30am 23.8 26.1 20.7 83 2.0 NW 9 11 5 6 1009.0 1008.0 0.2
22/05:00am 23.8 26.0 20.3 81 2.3 NW 9 9 5 5 1008.5 1007.5 0.2
22/04:30am 24.0 26.1 20.1 79 2.5 NW 9 13 5 7 1008.1 1007.1 0.2
22/04:00am 24.1 26.4 19.8 77 2.8 NW 7 9 4 5 1008.1 1007.1 0.2
22/03:30am 24.5 26.9 20.0 76 2.9 NW 7 9 4 5 1008.0 1007.0 0.2
22/03:00am 24.1 26.1 20.0 78 2.7 NW 9 13 5 7 1007.8 1006.8 0.2
22/02:30am 24.3 26.6 19.8 76 2.9 N 7 9 4 5 1007.5 1006.5 0.2
22/02:00am 24.6 27.1 20.3 77 2.8 N 7 9 4 5 1007.5 1006.5 0.2
22/01:30am 24.9 27.0 20.2 75 3.1 N 9 9 5 5 1007.4 1006.4 0.2
22/01:00am 25.8 26.5 20.4 72 3.6 N 17 26 9 14 1007.8 1006.8 0.2
22/12:30am 25.0 27.2 20.5 76 3.0 SE 9 11 5 6 1007.8 1006.8 0.2
22/12:00am 25.2 27.5 20.7 76 3.0 SE 9 11 5 6 1008.0 1007.0 0.2
 
Date/Time
EST
Temp
°C
App
Temp
°C
Dew
Point
°C
Rel
Hum
%
Delta-T
°C
Wind Press
QNH
hPa
Press
MSL
hPa
Rain since
9am
mm
Dir  Spd
km/h
Gust
km/h
Spd
kts
Gust
kts
21/11:30pm 25.5 28.4 20.7 75 3.2 SE 6 7 3 4 1008.3 1007.3 0.2
21/11:00pm 26.0 27.4 20.3 71 3.7 SE 13 13 7 7 1008.5 1007.5 0.2
21/10:30pm 26.3 29.0 21.3 74 3.3 SE 9 11 5 6 1008.5 1007.5 0.2
21/10:00pm 26.5 28.6 21.0 72 3.7 SE 11 13 6 7 1008.3 1007.3 0.2
21/09:30pm 26.7 29.3 20.5 69 4.1 SE 7 7 4 4 1008.1 1007.1 0.2
21/09:00pm 27.4 29.4 20.0 64 4.9 SE 9 13 5 7 1007.7 1006.7 0.2
21/08:30pm 28.9 29.4 19.2 55 6.3 SSE 15 19 8 10 1007.4 1006.4 0.2
21/08:00pm 29.8 30.9 18.9 52 7.1 S 11 15 6 8 1006.7 1005.7 0.2
21/07:30pm 30.3 31.2 18.4 49 7.7 SSW 11 19 6 10 1006.6 1005.6 0.2
21/07:00pm 30.6 30.3 17.3 45 8.5 W 15 24 8 13 1006.9 1005.9 0.2
21/06:30pm 29.8 32.0 19.2 53 6.9 NE 6 7 3 4 1006.7 1005.7 0.2
21/06:00pm 29.7 30.9 20.0 56 6.4 NE 13 17 7 9 1006.6 1005.6 0.2
21/05:30pm 29.6 29.1 19.9 56 6.4 NNE 22 35 12 19 1007.1 1006.1 0.2
21/05:00pm 28.2 26.5 19.7 60 5.6 NNE 28 35 15 19 1007.0 1006.0 0.2
21/04:30pm 26.6 26.1 20.7 70 3.9 ENE 24 32 13 17 1006.6 1005.6 0.2
21/04:25pm 26.3 25.0 20.6 71 3.8 E 28 46 15 25 1006.8 1005.8 0.2
21/04:18pm 26.2 22.0 20.5 71 3.8 E 43 63 23 34 1007.2 1006.2 0.2
21/04:14pm 25.9 19.5 20.2 71 3.7 ESE 54 74 29 40 1007.2 1006.2 0.2
21/04:07pm 27.1 21.2 19.7 64 4.8 SE 50 74 27 40 1007.4 1006.4 0.0
21/04:03pm 32.2 27.0 18.8 45 8.8 SE 44 69 24 37 1007.2 1006.2 0.0
21/04:00pm 32.5 27.8 19.4 46 8.7 SE 43 56 23 30 1007.0 1006.0 0.0
21/03:50pm 34.6 34.5 17.8 37 10.9 NE 15 50 8 27 1006.8 1005.8 0.0
21/03:30pm 36.8 36.7 17.9 33 12.4 N 15 24 8 13 1006.4 1005.4 0.0
21/03:00pm 38.0 40.0 19.9 35 12.2 NNW 9 20 5 11 1006.9 1005.9 0.0
21/02:30pm 36.5 37.5 18.6 35 11.8 N 11 17 6 9 1007.6 1006.6 0.0
21/02:00pm 36.0 37.5 19.0 36 11.3 ESE 9 17 5 9 1008.3 1007.3 0.0
21/01:30pm 36.3 37.8 20.5 39 10.7 NE 13 24 7 13 1009.0 1008.0 0.0
21/01:00pm 35.9 37.6 20.2 40 10.6 NNW 11 24 6 13 1009.6 1008.7 0.0
21/12:30pm 34.7 36.2 20.6 43 9.5 NNE 13 22 7 12 1010.2 1009.3 0.0
21/12:00pm 34.7 36.6 21.4 46 9.1 N 13 26 7 14 1010.6 1009.7 0.0
21/11:30am 33.3 34.7 21.1 48 8.3 N 15 32 8 17 1011.1 1010.2 0.0
21/11:00am 32.8 33.6 21.3 50 7.8 N 19 30 10 16 1011.6 1010.7 0.0
21/10:30am 32.7 34.1 21.9 53 7.4 N 17 28 9 15 1011.9 1011.0 0.0
21/10:00am 32.7 34.1 21.9 53 7.4 N 17 26 9 14 1012.0 1011.1 0.0
21/09:30am 32.1 32.8 21.6 53 7.1 N 20 28 11 15 1012.0 1011.1 0.0
21/09:00am 31.1 32.2 21.9 58 6.3 N 19 22 10 12 1011.9 1011.0 0.0
21/08:30am 29.8 30.7 21.5 61 5.6 N 19 24 10 13 1011.7 1010.8 0.0
21/08:00am 28.8 29.7 21.6 65 4.8 NNW 19 24 10 13 1011.5 1010.6 0.0
21/07:30am 28.0 29.0 21.1 66 4.6 NNW 17 20 9 11 1011.4 1010.5 0.0
21/07:00am 26.5 28.3 20.3 68 4.1 NW 11 17 6 9 1011.2 1010.3 0.0
21/06:30am 25.2 26.4 20.0 73 3.4 NW 13 17 7 9 1010.7 1009.8 0.0
21/06:00am 25.1 25.4 19.5 71 3.6 NNW 17 22 9 12 1010.3 1009.4 0.0
21/05:30am 25.5 26.0 19.2 68 4.1 N 15 19 8 10 1010.3 1009.4 0.0
21/05:00am 25.3 25.3 19.0 68 4.1 N 17 20 9 11 1009.6 1008.7 0.0
21/04:30am 25.0 24.7 19.6 72 3.5 N 20 28 11 15 1009.4 1008.4 0.0
21/04:00am 25.3 23.6 19.9 72 3.5 N 28 35 15 19 1009.5 1008.5 0.0
21/03:30am 26.0 24.1 20.1 70 3.9 N 30 39 16 21 1009.1 1008.1 0.0
21/03:09am 26.5 24.5 20.8 71 3.8 NNE 32 50 17 27 1009.0 1008.0 0.0
21/03:00am 27.4 25.1 20.5 66 4.6 NNE 33 50 18 27 1008.8 1007.8 0.0
21/02:30am 30.0 29.4 21.9 62 5.5 NNW 28 37 15 20 1008.1 1007.1 0.0
21/02:21am 31.0 31.9 21.5 57 6.4 NNW 19 35 10 19 1007.9 1006.9 0.0
21/02:00am 32.0 33.7 20.9 52 7.5 N 13 17 7 9 1007.6 1006.6 0.0
21/01:30am 32.5 33.5 21.0 50 7.8 N 17 24 9 13 1008.2 1007.2 0.0
21/01:00am 32.6 31.6 14.7 34 11.1 NE 13 19 7 10 1008.8 1007.8 0.0
21/12:30am 33.4 30.7 14.5 32 11.7 ENE 22 30 12 16 1009.0 1008.0 0.0
21/12:00am 33.7 30.5 14.2 30 12.0 ENE 24 33 13 18 1009.0 1008.0 0.0
 
Date/Time
EST
Temp
°C
App
Temp
°C
Dew
Point
°C
Rel
Hum
%
Delta-T
°C
Wind Press
QNH
hPa
Press
MSL
hPa
Rain since
9am
mm
Dir  Spd
km/h
Gust
km/h
Spd
kts
Gust
kts
20/11:30pm 33.3 30.9 14.4 32 11.6 ENE 20 30 11 16 1008.8 1007.8 0.0
20/11:00pm 33.5 30.9 15.0 32 11.5 E 22 26 12 14 1008.8 1007.8 0.0
20/10:30pm 34.4 32.3 15.3 31 12.0 E 20 30 11 16 1008.6 1007.6 0.0
20/10:00pm 33.9 32.8 15.4 33 11.6 E 15 17 8 9 1008.3 1007.3 0.0
20/09:30pm 33.8 33.6 15.7 33 11.4 ENE 11 13 6 7 1007.8 1006.8 0.0
20/09:00pm 34.3 34.7 16.2 34 11.5 ENE 9 11 5 6 1007.6 1006.6 0.0
20/08:30pm 34.9 35.1 15.7 31 12.1 ENE 9 15 5 8 1007.4 1006.4 0.0
20/08:00pm 35.6 35.1 15.9 31 12.5 ENE 13 19 7 10 1007.3 1006.3 0.0
20/07:30pm 36.4 35.7 15.5 29 13.2 E 13 22 7 12 1007.0 1006.0 0.0
20/07:00pm 37.5 36.0 14.1 24 14.6 SE 15 20 8 11 1006.8 1005.8 0.0
20/06:30pm 38.0 36.6 14.5 24 14.7 ESE 15 22 8 12 1006.5 1005.5 0.0
20/06:00pm 38.8 36.8 13.9 22 15.6 E 17 24 9 13 1006.4 1005.4 0.0
20/05:30pm 39.0 38.4 14.7 23 15.3 ENE 11 15 6 8 1006.5 1005.5 0.0
20/05:00pm 38.9 39.2 15.9 25 14.8 ENE 9 15 5 8 1006.6 1005.6 0.0
20/04:30pm 38.2 38.1 15.9 26 14.3 NE 11 20 6 11 1006.8 1005.8 0.0
20/04:00pm 38.9 38.4 15.9 25 14.8 ESE 13 24 7 13 1007.0 1006.0 0.0
20/03:30pm 40.0 40.0 16.2 24 15.4 E 11 24 6 13 1007.4 1006.4 0.0
20/03:00pm 38.9 38.0 15.9 25 14.8 ENE 15 24 8 13 1007.5 1006.5 0.0
20/02:30pm 38.1 39.0 17.5 30 13.5 ENE 9 22 5 12 1007.9 1006.9 0.0
20/02:00pm 37.9 37.7 16.8 29 13.7 SE 13 24 7 13 1008.5 1007.5 0.0
20/01:30pm 38.0 38.7 18.9 32 12.7 ESE 13 24 7 13 1009.0 1008.0 0.0
20/01:00pm 36.7 35.8 16.8 30 12.8 NE 17 24 9 13 1009.5 1008.5 0.0
20/12:30pm 36.4 36.7 18.0 33 12.0 NE 13 24 7 13 1009.9 1009.0 0.0
20/12:00pm 35.8 36.9 18.8 36 11.2 ENE 11 22 6 12 1010.4 1009.5 0.0
20/11:30am 34.9 36.8 19.7 41 10.1 NE 9 15 5 8 1010.9 1010.0 0.0
20/11:00am 34.3 36.6 20.7 45 9.2 N 9 19 5 10 1011.5 1010.6 0.0
20/10:30am 33.0 35.6 21.2 50 8.0 W 9 15 5 8 1012.0 1011.1 0.0
20/10:00am 32.7 34.5 21.9 53 7.4 NW 15 22 8 12 1012.4 1011.5 0.0
20/09:30am 31.8 32.9 21.9 55 6.7 NW 19 24 10 13 1012.7 1011.8 0.0
20/09:00am 31.0 31.7 21.5 57 6.4 NW 20 28 11 15 1012.8 1011.9 0.0
20/08:30am 30.6 31.2 21.1 57 6.4 NW 19 26 10 14 1012.6 1011.7 0.0
20/08:00am 29.8 30.7 20.9 59 6.0 NW 17 20 9 11 1012.5 1011.6 0.0
20/07:30am 28.8 30.2 21.1 63 5.1 NNW 15 17 8 9 1011.9 1011.0 0.0
20/07:00am 28.3 29.6 20.8 63 5.0 NNW 15 22 8 12 1011.3 1010.4 0.0
20/06:30am 27.8 28.7 20.9 66 4.6 NNW 17 24 9 13 1010.9 1010.0 0.0
20/06:00am 27.7 28.2 20.8 66 4.6 NNW 19 24 10 13 1010.2 1009.3 0.0
20/05:30am 27.9 28.1 20.5 64 4.9 NNW 20 24 11 13 1010.0 1009.1 0.0
20/05:00am 28.1 27.7 20.1 62 5.3 NNW 22 28 12 15 1009.6 1008.7 0.0
20/04:30am 28.4 27.7 19.6 59 5.8 NNW 22 30 12 16 1009.4 1008.4 0.0
20/04:00am 29.7 28.6 19.4 54 6.8 N 24 33 13 18 1009.1 1008.1 0.0
20/03:30am 30.3 28.9 18.7 50 7.5 NE 24 30 13 16 1008.8 1007.8 0.0
20/03:00am 30.0 28.9 17.8 48 7.8 NE 20 28 11 15 1008.6 1007.6 0.0
20/02:30am 30.0 29.9 17.8 48 7.8 ENE 15 20 8 11 1008.6 1007.6 0.0
20/02:00am 30.1 30.2 17.5 46 8.0 ESE 13 17 7 9 1008.7 1007.7 0.0
20/01:30am 29.4 30.2 18.2 51 7.2 SSE 11 15 6 8 1008.9 1007.9 0.0
20/01:00am 28.9 29.5 18.7 54 6.6 S 13 17 7 9 1009.3 1008.3 0.0
20/12:30am 29.7 28.2 18.5 51 7.2 SE 24 30 13 16 1009.6 1008.7 0.0
20/12:00am 29.6 27.8 18.7 52 7.1 SE 26 33 14 18 1010.0 1009.1 0.0
 
Date/Time
EST
Temp
°C
App
Temp
°C
Dew
Point
°C
Rel
Hum
%
Delta-T
°C
Wind Press
QNH
hPa
Press
MSL
hPa
Rain since
9am
mm
Dir  Spd
km/h
Gust
km/h
Spd
kts
Gust
kts
19/11:30pm 29.6 26.2 19.0 53 6.9 SSE 35 43 19 23 1010.4 1009.5 0.0
19/11:00pm 30.0 26.6 19.1 52 7.1 SE 35 44 19 24 1010.4 1009.5 0.0
19/10:30pm 29.6 26.5 19.6 55 6.6 SSE 35 46 19 25 1010.2 1009.3 0.0
19/10:00pm 29.8 27.2 19.5 54 6.8 SSE 32 39 17 21 1010.3 1009.4 0.0
19/09:30pm 29.9 26.8 19.6 54 6.8 SSE 35 44 19 24 1009.8 1008.9 0.0
19/09:10pm 31.3 29.6 19.0 48 8.0 S 26 46 14 25 1009.5 1008.5 0.0
19/09:00pm 30.6 30.2 19.3 51 7.4 SSW 20 26 11 14 1009.1 1008.1 0.0
19/08:30pm 31.4 27.9 18.7 46 8.3 SSW 35 50 19 27 1008.7 1007.7 0.0
19/08:20pm 32.0 28.8 18.2 43 8.9 SW 32 52 17 28 1008.7 1007.7 0.0
19/08:15pm 32.7 31.8 18.1 42 9.5 SW 20 41 11 22 1008.7 1007.7 0.0
19/08:00pm 32.6 33.4 16.4 37 10.3 SE 7 9 4 5 1008.3 1007.3 0.0
19/07:30pm 33.9 34.1 16.7 35 11.0 SE 11 15 6 8 1007.8 1006.8 0.0
19/07:00pm 34.4 33.1 16.7 34 11.3 ESE 19 26 10 14 1007.2 1006.2 0.0
19/06:30pm 35.1 32.3 17.3 34 11.5 ESE 28 35 15 19 1006.8 1005.8 0.0
19/06:00pm 36.8 34.0 17.4 32 12.6 SE 28 41 15 22 1006.8 1005.8 0.0
19/05:30pm 36.4 36.4 18.0 33 12.0 E 15 24 8 13 1006.6 1005.6 0.0
19/05:00pm 35.1 34.9 18.6 37 10.9 S 17 26 9 14 1006.5 1005.5 0.0
19/04:30pm 35.7 34.6 17.4 33 11.9 SE 19 26 10 14 1006.3 1005.3 0.0
19/04:00pm 36.6 33.6 17.7 32 12.4 ENE 30 37 16 20 1006.3 1005.3 0.0
19/03:30pm 38.1 36.0 18.0 30 13.2 E 26 39 14 21 1006.4 1005.4 0.0
19/03:00pm 38.5 37.9 18.9 32 13.1 E 20 30 11 16 1006.8 1005.8 0.0
19/02:30pm 38.6 37.8 18.4 30 13.4 E 20 35 11 19 1006.9 1005.9 0.0
19/02:00pm 37.8 37.5 18.3 32 12.9 ESE 17 32 9 17 1007.4 1006.4 0.0
19/01:30pm 38.5 38.1 18.9 32 13.1 E 19 32 10 17 1007.9 1006.9 0.0
19/01:00pm 38.7 38.7 19.0 31 13.2 ESE 17 30 9 16 1008.1 1007.1 0.0
19/12:30pm 38.2 39.1 20.0 34 12.3 E 15 33 8 18 1008.6 1007.6 0.0
19/12:00pm 36.7 38.6 20.5 39 11.0 E 11 20 6 11 1009.0 1008.0 0.0
19/11:30am 35.7 37.3 20.8 42 10.1 ESE 13 26 7 14 1009.3 1008.3 0.0
19/11:00am 35.9 36.7 21.3 42 10.0 ESE 19 26 10 14 1009.7 1008.8 0.0
19/10:30am 35.3 37.1 21.9 45 9.2 NE 15 24 8 13 1010.0 1009.1 0.0
19/10:00am 34.7 37.0 22.1 48 8.7 NNE 13 19 7 10 1010.2 1009.3 0.0
19/09:30am 33.0 33.9 20.9 49 8.2 NNE 17 22 9 12 1010.3 1009.4 0.0
19/09:00am 32.7 33.2 21.2 50 7.8 N 20 26 11 14 1010.2 1009.3 0.0
19/08:30am 32.3 32.2 21.5 53 7.3 NNE 24 32 13 17 1010.1 1009.2 0.0
19/08:00am 30.8 31.1 20.4 54 6.9 ENE 19 28 10 15 1009.9 1009.0 0.0

Other formats

Comma delimited format used in spreadsheet applications
http://www.bom.gov.au/fwo/IDQ60801/IDQ60801.94337.axf

JavaScript Object Notation format (JSON) in row-major order
http://www.bom.gov.au/fwo/IDQ60801/IDQ60801.94337.json

Data quality

Most of these data are generated automatically and are frequently updated. Quality checks on data are not normally performed. It is possible for incorrect values to appear. Refer to information at About Latest Weather Observations and please check the disclaimer before using these data.